createdAt,value
2019-03-24T00:00:21.544Z,0.00
2019-03-24T00:01:21.530Z,0.00
2019-03-24T00:02:21.506Z,0.00
2019-03-24T00:03:21.495Z,0.00
2019-03-24T00:04:21.468Z,0.00
2019-03-24T00:05:21.449Z,0.00
2019-03-24T00:06:21.434Z,0.00
2019-03-24T00:07:21.406Z,0.00
2019-03-24T00:08:21.391Z,0.00
2019-03-24T00:09:21.367Z,0.00
2019-03-24T00:10:21.353Z,0.00
2019-03-24T00:11:21.333Z,0.00
2019-03-24T00:12:21.315Z,0.00
2019-03-24T00:13:21.294Z,0.00
2019-03-24T00:14:21.274Z,0.00
2019-03-24T00:15:26.333Z,0.00
2019-03-24T00:16:21.235Z,0.00
2019-03-24T00:17:21.215Z,0.00
2019-03-24T00:18:21.200Z,0.00
2019-03-24T00:19:21.178Z,0.00
2019-03-24T00:20:21.160Z,0.00
2019-03-24T00:21:21.151Z,0.00
2019-03-24T00:22:21.121Z,0.00
2019-03-24T00:23:21.096Z,0.00
2019-03-24T00:24:21.081Z,0.00
2019-03-24T00:25:21.065Z,0.00
2019-03-24T00:26:23.400Z,0.00
2019-03-24T00:27:21.022Z,0.00
2019-03-24T00:28:21.001Z,0.00
2019-03-24T00:29:20.984Z,0.00
2019-03-24T00:30:20.966Z,0.00
2019-03-24T00:31:20.945Z,0.00
2019-03-24T00:32:20.922Z,0.00
2019-03-24T00:33:20.914Z,0.00
2019-03-24T00:34:20.893Z,0.00
2019-03-24T00:35:20.871Z,0.00
2019-03-24T00:36:20.856Z,0.00
2019-03-24T00:37:20.835Z,0.00
2019-03-24T00:38:20.810Z,0.00
2019-03-24T00:39:20.790Z,0.00
2019-03-24T00:40:20.772Z,0.00
2019-03-24T00:41:20.751Z,0.00
2019-03-24T00:42:20.734Z,0.00
2019-03-24T00:43:20.714Z,0.00
2019-03-24T00:44:20.693Z,0.00
2019-03-24T00:45:20.671Z,0.00
2019-03-24T00:46:20.655Z,0.00
2019-03-24T00:47:20.635Z,0.00
2019-03-24T00:48:20.612Z,0.00
2019-03-24T00:49:20.591Z,0.00
2019-03-24T00:50:20.583Z,0.00
2019-03-24T00:51:20.559Z,0.00
2019-03-24T00:52:20.535Z,0.00
2019-03-24T00:53:20.515Z,0.00
2019-03-24T00:54:20.495Z,0.00
2019-03-24T00:55:20.477Z,0.00
2019-03-24T00:56:20.455Z,0.00
2019-03-24T00:57:20.438Z,0.00
2019-03-24T00:58:20.417Z,0.00
2019-03-24T00:59:20.399Z,0.00
2019-03-24T01:00:20.381Z,0.00
2019-03-24T01:01:20.361Z,0.00
2019-03-24T01:02:20.337Z,0.00
2019-03-24T01:03:20.327Z,0.00
2019-03-24T01:04:20.297Z,0.00
2019-03-24T01:05:20.282Z,0.00
2019-03-24T01:06:20.259Z,0.00
2019-03-24T01:07:20.239Z,0.00
2019-03-24T01:08:20.219Z,0.00
2019-03-24T01:09:20.202Z,0.00
2019-03-24T01:10:20.180Z,0.00
2019-03-24T01:11:20.163Z,0.00
2019-03-24T01:12:20.141Z,0.00
2019-03-24T01:13:20.120Z,0.00
2019-03-24T01:14:20.099Z,0.00
2019-03-24T01:15:20.086Z,0.00
2019-03-24T01:16:20.063Z,0.00
2019-03-24T01:17:20.044Z,0.00
2019-03-24T01:18:20.024Z,0.00
2019-03-24T01:19:20.003Z,0.00
2019-03-24T01:20:19.982Z,0.00
2019-03-24T01:21:19.962Z,0.00
2019-03-24T01:22:19.938Z,0.00
2019-03-24T01:23:19.922Z,0.00
2019-03-24T01:24:19.901Z,0.00
2019-03-24T01:25:19.884Z,0.00
2019-03-24T01:26:19.864Z,0.00
2019-03-24T01:27:19.843Z,0.00
2019-03-24T01:28:19.821Z,0.00
2019-03-24T01:29:19.801Z,0.00
2019-03-24T01:30:19.784Z,0.00
2019-03-24T01:31:19.765Z,0.00
2019-03-24T01:32:19.739Z,0.00
2019-03-24T01:33:19.722Z,0.00
2019-03-24T01:34:19.704Z,0.00
2019-03-24T01:35:19.684Z,0.00
2019-03-24T01:36:19.662Z,0.00
2019-03-24T01:37:19.643Z,0.00
2019-03-24T01:38:19.621Z,0.00
2019-03-24T01:39:19.603Z,0.00
2019-03-24T01:40:19.581Z,0.00
2019-03-24T01:41:19.557Z,0.00
2019-03-24T01:42:19.539Z,0.00
2019-03-24T01:43:19.520Z,0.00
2019-03-24T01:44:19.496Z,0.00
2019-03-24T01:45:19.483Z,0.00
2019-03-24T01:46:19.463Z,0.00
2019-03-24T01:47:19.436Z,0.00
2019-03-24T01:48:19.423Z,0.00
2019-03-24T01:49:19.398Z,0.00
2019-03-24T01:50:19.374Z,0.00
2019-03-24T01:51:19.357Z,0.00
2019-03-24T01:52:19.336Z,0.00
2019-03-24T01:53:19.314Z,0.00
2019-03-24T01:54:19.298Z,0.00
2019-03-24T01:55:19.282Z,0.00
2019-03-24T01:56:19.259Z,0.00
2019-03-24T01:57:19.232Z,0.00
2019-03-24T01:58:19.213Z,0.00
2019-03-24T01:59:19.197Z,0.00
2019-03-24T02:00:19.174Z,0.00
2019-03-24T02:01:19.156Z,0.00
2019-03-24T02:02:19.132Z,0.00
2019-03-24T02:03:19.116Z,0.00
2019-03-24T02:04:19.099Z,0.00
2019-03-24T02:05:19.072Z,0.00
2019-03-24T02:06:19.052Z,0.00
2019-03-24T02:07:19.032Z,0.00
2019-03-24T02:08:19.008Z,0.00
2019-03-24T02:09:18.990Z,0.00
2019-03-24T02:10:18.968Z,0.00
2019-03-24T02:11:18.948Z,0.00
2019-03-24T02:12:18.929Z,0.00
2019-03-24T02:13:18.908Z,0.00
2019-03-24T02:14:18.888Z,0.00
2019-03-24T02:15:18.870Z,0.00
2019-03-24T02:16:18.847Z,0.00
2019-03-24T02:17:18.822Z,0.00
2019-03-24T02:18:18.810Z,0.00
2019-03-24T02:19:18.782Z,0.00
2019-03-24T02:20:18.767Z,0.00
2019-03-24T02:21:18.744Z,0.00
2019-03-24T02:22:18.723Z,0.00
2019-03-24T02:23:18.701Z,0.00
2019-03-24T02:24:18.688Z,0.00
2019-03-24T02:25:18.665Z,0.00
2019-03-24T02:26:18.638Z,0.00
2019-03-24T02:27:18.624Z,0.00
2019-03-24T02:28:18.598Z,0.00
2019-03-24T02:29:18.580Z,0.00
2019-03-24T02:30:18.556Z,0.00
2019-03-24T02:31:18.546Z,0.00
2019-03-24T02:32:18.516Z,0.00
2019-03-24T02:33:18.490Z,0.00
2019-03-24T02:34:18.473Z,0.00
2019-03-24T02:35:18.452Z,0.00
2019-03-24T02:36:18.440Z,0.00
2019-03-24T02:37:18.422Z,0.00
2019-03-24T02:38:18.398Z,0.00
2019-03-24T02:39:18.377Z,0.00
2019-03-24T02:40:18.363Z,0.00
2019-03-24T02:41:18.332Z,0.00
2019-03-24T02:42:18.311Z,0.00
2019-03-24T02:43:18.289Z,0.00
2019-03-24T02:44:18.269Z,0.00
2019-03-24T02:45:18.250Z,0.00
2019-03-24T02:46:24.077Z,0.00
2019-03-24T02:47:18.211Z,0.00
2019-03-24T02:48:18.185Z,0.00
2019-03-24T02:49:18.165Z,0.00
2019-03-24T02:50:18.146Z,0.00
2019-03-24T02:51:18.122Z,0.00
2019-03-24T02:52:18.102Z,0.00
2019-03-24T02:53:18.114Z,0.00
2019-03-24T02:54:18.062Z,0.00
2019-03-24T02:55:18.047Z,0.00
2019-03-24T02:56:18.048Z,0.00
2019-03-24T02:57:18.003Z,0.00
2019-03-24T02:58:17.977Z,0.00
2019-03-24T02:59:17.959Z,0.00
2019-03-24T03:00:17.934Z,0.00
2019-03-24T03:01:17.927Z,0.00
2019-03-24T03:02:17.889Z,0.00
2019-03-24T03:03:17.875Z,0.00
2019-03-24T03:04:17.861Z,0.00
2019-03-24T03:05:17.834Z,0.00
2019-03-24T03:06:17.807Z,0.00
2019-03-24T03:07:17.785Z,0.00
2019-03-24T03:08:17.786Z,0.00
2019-03-24T03:09:17.751Z,0.00
2019-03-24T03:10:17.736Z,0.00
2019-03-24T03:11:17.710Z,0.00
2019-03-24T03:12:17.692Z,0.00
2019-03-24T03:13:17.663Z,0.00
2019-03-24T03:14:17.640Z,0.00
2019-03-24T03:15:17.624Z,0.00
2019-03-24T03:16:17.596Z,0.00
2019-03-24T03:17:17.578Z,0.00
2019-03-24T03:18:17.558Z,0.00
2019-03-24T03:19:17.537Z,0.00
2019-03-24T03:20:17.516Z,0.00
2019-03-24T03:21:17.498Z,0.00
2019-03-24T03:22:17.476Z,0.00
2019-03-24T03:23:17.451Z,0.00
2019-03-24T03:24:17.434Z,0.00
2019-03-24T03:25:17.415Z,0.00
2019-03-24T03:26:17.389Z,0.00
2019-03-24T03:27:17.368Z,0.00
2019-03-24T03:28:17.344Z,0.00
2019-03-24T03:29:17.334Z,0.00
2019-03-24T03:30:17.302Z,0.00
2019-03-24T03:31:17.284Z,0.00
2019-03-24T03:32:17.260Z,0.00
2019-03-24T03:33:17.257Z,0.00
2019-03-24T03:34:17.232Z,0.00
2019-03-24T03:35:17.211Z,0.00
2019-03-24T03:36:17.174Z,0.00
2019-03-24T03:37:17.159Z,0.00
2019-03-24T03:38:17.145Z,0.00
2019-03-24T03:39:17.120Z,0.00
2019-03-24T03:40:17.109Z,0.00
2019-03-24T03:41:17.072Z,0.00
2019-03-24T03:42:17.056Z,0.00
2019-03-24T03:43:17.026Z,0.00
2019-03-24T03:44:17.016Z,0.00
2019-03-24T03:45:16.986Z,0.00
2019-03-24T03:46:16.973Z,0.00
2019-03-24T03:47:16.938Z,0.00
2019-03-24T03:48:16.941Z,0.00
2019-03-24T03:49:16.901Z,0.00
2019-03-24T03:50:16.880Z,0.00
2019-03-24T03:51:16.856Z,0.00
2019-03-24T03:52:16.841Z,0.00
2019-03-24T03:53:16.819Z,0.00
2019-03-24T03:54:16.791Z,0.00
2019-03-24T03:55:16.777Z,0.00
2019-03-24T03:56:16.751Z,0.00
2019-03-24T03:57:16.728Z,0.00
2019-03-24T03:58:16.708Z,0.00
2019-03-24T03:59:16.686Z,0.00
2019-03-24T04:00:16.678Z,0.00
2019-03-24T04:01:16.641Z,0.00
2019-03-24T04:02:16.662Z,0.00
2019-03-24T04:03:16.601Z,0.00
2019-03-24T04:04:16.579Z,0.00
2019-03-24T04:05:19.190Z,0.00
2019-03-24T04:06:16.534Z,0.00
2019-03-24T04:07:16.574Z,0.00
2019-03-24T04:08:16.488Z,0.00
2019-03-24T04:09:16.471Z,0.00
2019-03-24T04:10:16.443Z,0.00
2019-03-24T04:11:16.432Z,0.00
2019-03-24T04:12:16.408Z,0.00
2019-03-24T04:13:16.385Z,0.00
2019-03-24T04:14:16.361Z,0.00
2019-03-24T04:15:16.340Z,0.00
2019-03-24T04:16:16.317Z,0.00
2019-03-24T04:17:16.301Z,0.00
2019-03-24T04:18:16.279Z,0.00
2019-03-24T04:19:16.254Z,0.00
2019-03-24T04:20:16.232Z,0.00
2019-03-24T04:21:16.209Z,0.00
2019-03-24T04:22:16.190Z,0.00
2019-03-24T04:23:16.167Z,0.00
2019-03-24T04:24:16.142Z,0.00
2019-03-24T04:25:16.124Z,0.00
2019-03-24T04:26:16.109Z,0.00
2019-03-24T04:27:16.081Z,0.00
2019-03-24T04:28:16.058Z,0.00
2019-03-24T04:29:16.041Z,0.00
2019-03-24T04:30:16.014Z,0.00
2019-03-24T04:31:16.002Z,4.00
2019-03-24T04:32:15.969Z,4.00
2019-03-24T04:33:15.950Z,4.00
2019-03-24T04:34:15.931Z,0.00
2019-03-24T04:35:15.910Z,0.00
2019-03-24T04:36:15.884Z,4.00
2019-03-24T04:37:15.872Z,0.00
2019-03-24T04:38:15.838Z,4.00
2019-03-24T04:39:15.820Z,4.00
2019-03-24T04:40:15.797Z,4.00
2019-03-24T04:41:15.784Z,8.00
2019-03-24T04:42:15.754Z,8.00
2019-03-24T04:43:15.732Z,8.00
2019-03-24T04:44:15.708Z,12.00
2019-03-24T04:45:15.689Z,16.00
2019-03-24T04:46:15.663Z,16.00
2019-03-24T04:47:16.757Z,20.00
2019-03-24T04:48:15.622Z,20.00
2019-03-24T04:49:15.599Z,24.00
2019-03-24T04:50:15.580Z,28.00
2019-03-24T04:51:15.561Z,32.00
2019-03-24T04:52:15.533Z,36.00
2019-03-24T04:53:15.512Z,40.00
2019-03-24T04:54:15.488Z,44.00
2019-03-24T04:55:15.468Z,52.00
2019-03-24T04:56:15.447Z,52.00
2019-03-24T04:57:15.431Z,60.00
2019-03-24T04:58:15.401Z,68.00
2019-03-24T04:59:15.382Z,72.00
2019-03-24T05:00:15.360Z,80.00
2019-03-24T05:01:15.370Z,88.00
2019-03-24T05:02:15.321Z,96.00
2019-03-24T05:03:15.298Z,108.00
2019-03-24T05:04:15.273Z,112.00
2019-03-24T05:05:15.256Z,128.00
2019-03-24T05:06:15.230Z,136.00
2019-03-24T05:07:15.207Z,152.00
2019-03-24T05:08:15.189Z,160.00
2019-03-24T05:09:15.163Z,176.00
2019-03-24T05:10:15.138Z,188.00
2019-03-24T05:11:15.121Z,208.00
2019-03-24T05:12:15.101Z,224.00
2019-03-24T05:13:15.080Z,244.00
2019-03-24T05:14:15.055Z,256.00
2019-03-24T05:15:15.032Z,276.00
2019-03-24T05:16:15.016Z,296.00
2019-03-24T05:17:14.987Z,312.00
2019-03-24T05:18:14.965Z,328.00
2019-03-24T05:19:14.940Z,348.00
2019-03-24T05:20:14.928Z,372.00
2019-03-24T05:21:14.903Z,388.00
2019-03-24T05:22:14.876Z,408.00
2019-03-24T05:23:14.853Z,428.00
2019-03-24T05:24:14.837Z,448.00
2019-03-24T05:25:14.807Z,472.00
2019-03-24T05:26:14.787Z,496.00
2019-03-24T05:27:14.774Z,516.00
2019-03-24T05:28:14.745Z,540.00
2019-03-24T05:29:14.724Z,564.00
2019-03-24T05:30:14.706Z,588.00
2019-03-24T05:31:14.681Z,628.00
2019-03-24T05:32:14.655Z,660.00
2019-03-24T05:33:14.632Z,700.00
2019-03-24T05:34:14.612Z,740.00
2019-03-24T05:35:14.606Z,788.00
2019-03-24T05:36:14.580Z,828.00
2019-03-24T05:37:14.550Z,872.00
2019-03-24T05:38:14.528Z,908.00
2019-03-24T05:39:14.504Z,944.00
2019-03-24T05:40:14.479Z,980.00
2019-03-24T05:41:14.467Z,1020.00
2019-03-24T05:42:14.435Z,1056.00
2019-03-24T05:43:14.411Z,1092.00
2019-03-24T05:44:14.395Z,1120.00
2019-03-24T05:45:14.369Z,1128.00
2019-03-24T05:46:14.354Z,1136.00
2019-03-24T05:47:14.332Z,1148.00
2019-03-24T05:48:14.303Z,1176.00
2019-03-24T05:49:14.285Z,1192.00
2019-03-24T05:50:14.261Z,1200.00
2019-03-24T05:51:14.242Z,1188.00
2019-03-24T05:52:14.214Z,1188.00
2019-03-24T05:53:14.191Z,1176.00
2019-03-24T05:54:14.170Z,1160.00
2019-03-24T05:55:14.152Z,1144.00
2019-03-24T05:56:14.136Z,1124.00
2019-03-24T05:57:14.111Z,1096.00
2019-03-24T05:58:14.085Z,1100.00
2019-03-24T05:59:14.064Z,1100.00
2019-03-24T06:00:14.046Z,1112.00
2019-03-24T06:01:14.022Z,1128.00
2019-03-24T06:02:13.997Z,1156.00
2019-03-24T06:03:13.984Z,1188.00
2019-03-24T06:04:13.953Z,1232.00
2019-03-24T06:05:13.935Z,1296.00
2019-03-24T06:06:13.903Z,1380.00
2019-03-24T06:07:13.885Z,1464.00
2019-03-24T06:08:13.865Z,1548.00
2019-03-24T06:09:13.843Z,1596.00
2019-03-24T06:10:13.823Z,1648.00
2019-03-24T06:11:13.799Z,1664.00
2019-03-24T06:12:13.777Z,1648.00
2019-03-24T06:13:13.759Z,1660.00
2019-03-24T06:14:13.736Z,1672.00
2019-03-24T06:15:13.715Z,1720.00
2019-03-24T06:16:13.690Z,1744.00
2019-03-24T06:17:13.673Z,1800.00
2019-03-24T06:18:13.651Z,1868.00
2019-03-24T06:19:13.629Z,1900.00
2019-03-24T06:20:13.603Z,1896.00
2019-03-24T06:21:13.581Z,1912.00
2019-03-24T06:22:13.561Z,1956.00
2019-03-24T06:23:13.536Z,1980.00
2019-03-24T06:24:13.517Z,1988.00
2019-03-24T06:25:13.499Z,1992.00
2019-03-24T06:26:13.474Z,1980.00
2019-03-24T06:27:13.452Z,2008.00
2019-03-24T06:28:13.429Z,2052.00
2019-03-24T06:29:13.406Z,1920.00
2019-03-24T06:30:13.385Z,2040.00
2019-03-24T06:31:13.365Z,2152.00
2019-03-24T06:32:13.346Z,2268.00
2019-03-24T06:33:13.321Z,2296.00
2019-03-24T06:34:13.299Z,2384.00
2019-03-24T06:35:13.285Z,2520.00
2019-03-24T06:36:13.257Z,2612.00
2019-03-24T06:37:13.238Z,2744.00
2019-03-24T06:38:13.212Z,2800.00
2019-03-24T06:39:13.196Z,2864.00
2019-03-24T06:40:13.174Z,2936.00
2019-03-24T06:41:13.151Z,3000.00
2019-03-24T06:42:13.130Z,3080.00
2019-03-24T06:43:13.107Z,3200.00
2019-03-24T06:44:13.094Z,3304.00
2019-03-24T06:45:13.064Z,3436.00
2019-03-24T06:46:15.002Z,3508.00
2019-03-24T06:47:13.021Z,3676.00
2019-03-24T06:48:13.003Z,3848.00
2019-03-24T06:49:12.984Z,3912.00
2019-03-24T06:50:12.954Z,3960.00
2019-03-24T06:51:12.937Z,4396.00
2019-03-24T06:52:12.966Z,4000.00
2019-03-24T06:53:12.895Z,4832.00
2019-03-24T06:54:12.875Z,4936.00
2019-03-24T06:55:12.858Z,5064.00
2019-03-24T06:56:12.829Z,4788.00
2019-03-24T06:57:12.814Z,5684.00
2019-03-24T06:58:12.792Z,5468.00
2019-03-24T06:59:12.774Z,4864.00
2019-03-24T07:00:12.750Z,4972.00
2019-03-24T07:01:12.730Z,4788.00
2019-03-24T07:02:12.711Z,4728.00
2019-03-24T07:03:12.691Z,5448.00
2019-03-24T07:04:12.668Z,4876.00
2019-03-24T07:05:12.644Z,5100.00
2019-03-24T07:06:12.629Z,5112.00
2019-03-24T07:07:12.606Z,5036.00
2019-03-24T07:08:12.586Z,5080.00
2019-03-24T07:09:12.567Z,5056.00
2019-03-24T07:10:12.548Z,5244.00
2019-03-24T07:11:13.907Z,4312.00
2019-03-24T07:12:12.509Z,4340.00
2019-03-24T07:13:12.488Z,4368.00
2019-03-24T07:14:12.464Z,4368.00
2019-03-24T07:15:12.447Z,4456.00
2019-03-24T07:16:12.433Z,4572.00
2019-03-24T07:17:12.405Z,4520.00
2019-03-24T07:18:12.388Z,4692.00
2019-03-24T07:19:12.372Z,4668.00
2019-03-24T07:20:12.345Z,4656.00
2019-03-24T07:21:12.324Z,4532.00
2019-03-24T07:22:12.306Z,4536.00
2019-03-24T07:23:12.290Z,4524.00
2019-03-24T07:24:12.266Z,4536.00
2019-03-24T07:25:12.251Z,4600.00
2019-03-24T07:26:12.227Z,4592.00
2019-03-24T07:27:12.211Z,4648.00
2019-03-24T07:28:12.189Z,4848.00
2019-03-24T07:29:12.166Z,4840.00
2019-03-24T07:30:12.145Z,4988.00
2019-03-24T07:31:12.127Z,6052.00
2019-03-24T07:32:12.162Z,8656.00
2019-03-24T07:33:12.092Z,9532.00
2019-03-24T07:34:12.068Z,6080.00
2019-03-24T07:35:12.050Z,7520.00
2019-03-24T07:36:12.032Z,7184.00
2019-03-24T07:37:12.008Z,10388.00
2019-03-24T07:38:11.988Z,7252.00
2019-03-24T07:39:11.970Z,8296.00
2019-03-24T07:40:11.954Z,6460.00
2019-03-24T07:41:11.935Z,6580.00
2019-03-24T07:42:11.913Z,6668.00
2019-03-24T07:43:11.900Z,6396.00
2019-03-24T07:44:11.874Z,8848.00
2019-03-24T07:45:11.857Z,6812.00
2019-03-24T07:46:11.835Z,7736.00
2019-03-24T07:47:11.817Z,7380.00
2019-03-24T07:48:18.967Z,6800.00
2019-03-24T07:49:11.777Z,9276.00
2019-03-24T07:50:11.756Z,10048.00
2019-03-24T07:51:11.740Z,7736.00
2019-03-24T07:52:11.719Z,10308.00
2019-03-24T07:53:11.702Z,8864.00
2019-03-24T07:54:11.681Z,8956.00
2019-03-24T07:55:11.668Z,7864.00
2019-03-24T07:56:11.644Z,8676.00
2019-03-24T07:57:11.625Z,12308.00
2019-03-24T07:58:11.608Z,13304.00
2019-03-24T07:59:11.586Z,16000.00
2019-03-24T08:00:11.587Z,11212.00
2019-03-24T08:01:11.554Z,8764.00
2019-03-24T08:02:11.535Z,8120.00
2019-03-24T08:03:11.516Z,8684.00
2019-03-24T08:04:11.495Z,8056.00
2019-03-24T08:05:11.484Z,8312.00
2019-03-24T08:06:11.457Z,7544.00
2019-03-24T08:07:11.438Z,6836.00
2019-03-24T08:08:11.423Z,6536.00
2019-03-24T08:09:11.401Z,6456.00
2019-03-24T08:10:11.389Z,8148.00
2019-03-24T08:11:11.367Z,7424.00
2019-03-24T08:12:11.347Z,7736.00
2019-03-24T08:13:11.334Z,7824.00
2019-03-24T08:14:11.312Z,8200.00
2019-03-24T08:15:11.295Z,8832.00
2019-03-24T08:16:11.275Z,10652.00
2019-03-24T08:17:11.257Z,9432.00
2019-03-24T08:18:11.298Z,7840.00
2019-03-24T08:19:13.840Z,8480.00
2019-03-24T08:20:12.288Z,9160.00
2019-03-24T08:21:11.183Z,7852.00
2019-03-24T08:22:11.171Z,8780.00
2019-03-24T08:23:11.153Z,8028.00
2019-03-24T08:24:11.132Z,9032.00
2019-03-24T08:25:11.123Z,7436.00
2019-03-24T08:26:11.101Z,7184.00
2019-03-24T08:27:11.087Z,6976.00
2019-03-24T08:28:11.069Z,7468.00
2019-03-24T08:29:11.048Z,7816.00
2019-03-24T08:30:11.032Z,8360.00
2019-03-24T08:31:11.029Z,8900.00
2019-03-24T08:32:11.002Z,8924.00
2019-03-24T08:33:10.982Z,11568.00
2019-03-24T08:34:10.972Z,13160.00
2019-03-24T08:35:11.007Z,12692.00
2019-03-24T08:36:10.933Z,11452.00
2019-03-24T08:37:10.915Z,12344.00
2019-03-24T08:38:10.897Z,12632.00
2019-03-24T08:39:10.882Z,12376.00
2019-03-24T08:40:10.871Z,8184.00
2019-03-24T08:41:10.849Z,11008.00
2019-03-24T08:42:10.834Z,9956.00
2019-03-24T08:43:10.825Z,11748.00
2019-03-24T08:44:10.801Z,12080.00
2019-03-24T08:45:10.781Z,13412.00
2019-03-24T08:46:10.769Z,13196.00
2019-03-24T08:47:10.815Z,14476.00
2019-03-24T08:48:10.739Z,14232.00
2019-03-24T08:49:10.721Z,12904.00
2019-03-24T08:50:10.715Z,13768.00
2019-03-24T08:51:10.691Z,9336.00
2019-03-24T08:52:10.686Z,9184.00
2019-03-24T08:53:10.660Z,9116.00
2019-03-24T08:54:10.652Z,7412.00
2019-03-24T08:55:10.628Z,6832.00
2019-03-24T08:56:10.614Z,6128.00
2019-03-24T08:57:10.604Z,7008.00
2019-03-24T08:58:10.585Z,8080.00
2019-03-24T08:59:10.569Z,6092.00
2019-03-24T09:00:10.555Z,7688.00
2019-03-24T09:01:10.539Z,6480.00
2019-03-24T09:02:10.528Z,7516.00
2019-03-24T09:03:10.504Z,9216.00
2019-03-24T09:04:10.500Z,8768.00
2019-03-24T09:05:10.480Z,11092.00
2019-03-24T09:06:10.465Z,10404.00
2019-03-24T09:07:10.446Z,11012.00
2019-03-24T09:08:10.432Z,10976.00
2019-03-24T09:09:10.415Z,11360.00
2019-03-24T09:10:10.399Z,11128.00
2019-03-24T09:11:10.388Z,12908.00
2019-03-24T09:12:10.375Z,10928.00
2019-03-24T09:13:10.355Z,10356.00
2019-03-24T09:14:10.342Z,10828.00
2019-03-24T09:15:10.331Z,10264.00
2019-03-24T09:16:10.310Z,10260.00
2019-03-24T09:17:10.299Z,10800.00
2019-03-24T09:18:10.285Z,10300.00
2019-03-24T09:19:10.275Z,10788.00
2019-03-24T09:20:10.260Z,10876.00
2019-03-24T09:21:10.248Z,12560.00
2019-03-24T09:22:10.232Z,10980.00
2019-03-24T09:23:10.713Z,13912.00
2019-03-24T09:24:10.194Z,11100.00
2019-03-24T09:25:10.193Z,11240.00
2019-03-24T09:26:10.175Z,12540.00
2019-03-24T09:27:10.149Z,12032.00
2019-03-24T09:28:10.140Z,10844.00
2019-03-24T09:29:10.126Z,10712.00
2019-03-24T09:30:10.110Z,10376.00
2019-03-24T09:31:10.096Z,9884.00
2019-03-24T09:32:10.081Z,9828.00
2019-03-24T09:33:10.067Z,9240.00
2019-03-24T09:34:10.055Z,9428.00
2019-03-24T09:35:10.042Z,8732.00
2019-03-24T09:36:10.025Z,9032.00
2019-03-24T09:37:10.012Z,9020.00
2019-03-24T09:38:10.001Z,10052.00
2019-03-24T09:39:09.976Z,7720.00
2019-03-24T09:40:09.966Z,9296.00
2019-03-24T09:41:09.949Z,7940.00
2019-03-24T09:42:09.936Z,9140.00
2019-03-24T09:43:09.918Z,8716.00
2019-03-24T09:44:09.914Z,8584.00
2019-03-24T09:45:09.903Z,8648.00
2019-03-24T09:46:09.881Z,8064.00
2019-03-24T09:47:09.873Z,8448.00
2019-03-24T09:48:09.850Z,8164.00
2019-03-24T09:49:09.835Z,7172.00
2019-03-24T09:50:09.820Z,8320.00
2019-03-24T09:51:09.809Z,8212.00
2019-03-24T09:52:09.792Z,8332.00
2019-03-24T09:53:09.778Z,8260.00
2019-03-24T09:54:09.766Z,8264.00
2019-03-24T09:55:09.748Z,8424.00
2019-03-24T09:56:09.735Z,8508.00
2019-03-24T09:57:09.721Z,8444.00
2019-03-24T09:58:09.706Z,8560.00
2019-03-24T09:59:09.692Z,8644.00
2019-03-24T10:00:09.680Z,8708.00
2019-03-24T10:01:09.664Z,8788.00
2019-03-24T10:02:09.659Z,8968.00
2019-03-24T10:03:09.633Z,9188.00
2019-03-24T10:04:09.616Z,9372.00
2019-03-24T10:05:09.621Z,9420.00
2019-03-24T10:06:09.593Z,9516.00
2019-03-24T10:07:09.579Z,9784.00
2019-03-24T10:08:09.565Z,10112.00
2019-03-24T10:09:09.553Z,10288.00
2019-03-24T10:10:09.538Z,10288.00
2019-03-24T10:11:09.524Z,10440.00
2019-03-24T10:12:09.512Z,10620.00
2019-03-24T10:13:09.501Z,10724.00
2019-03-24T10:14:09.489Z,10728.00
2019-03-24T10:15:09.469Z,10876.00
2019-03-24T10:16:09.457Z,11180.00
2019-03-24T10:17:09.453Z,10608.00
2019-03-24T10:18:09.436Z,11492.00
2019-03-24T10:19:13.937Z,12420.00
2019-03-24T10:20:09.406Z,13496.00
2019-03-24T10:21:09.393Z,8840.00
2019-03-24T10:22:09.384Z,8288.00
2019-03-24T10:23:09.366Z,11812.00
2019-03-24T10:24:09.362Z,14308.00
2019-03-24T10:25:09.345Z,14112.00
2019-03-24T10:26:09.329Z,15200.00
2019-03-24T10:27:09.315Z,33664.00
2019-03-24T10:28:09.308Z,69056.00
2019-03-24T10:29:09.297Z,78240.00
2019-03-24T10:30:09.280Z,52416.00
2019-03-24T10:31:09.273Z,27424.00
2019-03-24T10:32:09.272Z,23968.00
2019-03-24T10:33:09.251Z,27840.00
2019-03-24T10:34:09.238Z,76960.00
2019-03-24T10:35:09.223Z,66080.00
2019-03-24T10:36:09.216Z,50496.00
2019-03-24T10:37:09.210Z,39104.00
2019-03-24T10:38:09.194Z,36064.00
2019-03-24T10:39:09.182Z,50816.00
2019-03-24T10:40:09.172Z,41504.00
2019-03-24T10:41:09.157Z,28192.00
2019-03-24T10:42:09.149Z,25696.00
2019-03-24T10:43:09.140Z,23808.00
2019-03-24T10:44:09.129Z,31040.00
2019-03-24T10:45:09.117Z,29344.00
2019-03-24T10:46:09.108Z,65888.00
2019-03-24T10:47:09.095Z,66016.00
2019-03-24T10:48:09.087Z,44736.00
2019-03-24T10:49:09.081Z,44704.00
2019-03-24T10:50:09.068Z,97024.00
2019-03-24T10:51:09.057Z,68672.00
2019-03-24T10:52:09.045Z,61120.00
2019-03-24T10:53:09.037Z,34080.00
2019-03-24T10:54:09.026Z,74208.00
2019-03-24T10:55:09.017Z,67968.00
2019-03-24T10:56:09.011Z,37440.00
2019-03-24T10:57:09.003Z,36800.00
2019-03-24T10:58:08.994Z,84960.00
2019-03-24T10:59:08.985Z,30112.00
2019-03-24T11:00:08.971Z,95008.00
2019-03-24T11:01:08.963Z,37024.00
2019-03-24T11:02:08.955Z,37472.00
2019-03-24T11:03:08.950Z,38880.00
2019-03-24T11:04:08.945Z,72992.00
2019-03-24T11:05:08.939Z,47936.00
2019-03-24T11:06:08.921Z,62720.00
2019-03-24T11:07:08.921Z,64480.00
2019-03-24T11:08:09.230Z,86240.00
2019-03-24T11:09:08.904Z,50336.00
2019-03-24T11:10:08.889Z,70528.00
2019-03-24T11:11:08.893Z,79360.00
2019-03-24T11:12:08.886Z,84832.00
2019-03-24T11:13:08.865Z,81856.00
2019-03-24T11:14:08.861Z,81440.00
2019-03-24T11:15:08.852Z,79680.00
2019-03-24T11:16:08.846Z,87008.00
2019-03-24T11:17:08.838Z,87840.00
2019-03-24T11:18:08.831Z,80384.00
2019-03-24T11:19:08.821Z,75424.00
2019-03-24T11:20:08.819Z,87040.00
2019-03-24T11:21:09.006Z,86272.00
2019-03-24T11:22:08.811Z,46592.00
2019-03-24T11:23:08.802Z,85984.00
2019-03-24T11:24:08.797Z,90976.00
2019-03-24T11:25:08.794Z,60096.00
2019-03-24T11:26:08.783Z,51360.00
2019-03-24T11:27:08.791Z,33792.00
2019-03-24T11:28:08.776Z,91584.00
2019-03-24T11:29:08.770Z,59936.00
2019-03-24T11:30:08.764Z,53312.00
2019-03-24T11:31:08.763Z,27776.00
2019-03-24T11:32:08.753Z,24352.00
2019-03-24T11:33:08.753Z,15788.00
2019-03-24T11:34:08.747Z,14340.00
2019-03-24T11:35:08.750Z,21952.00
2019-03-24T11:36:08.741Z,15600.00
2019-03-24T11:37:08.738Z,16288.00
2019-03-24T11:38:08.724Z,24800.00
2019-03-24T11:39:08.735Z,26912.00
2019-03-24T11:40:08.713Z,23968.00
2019-03-24T11:41:08.715Z,26048.00
2019-03-24T11:42:08.711Z,25056.00
2019-03-24T11:43:08.698Z,33152.00
2019-03-24T11:44:08.696Z,41120.00
2019-03-24T11:45:08.688Z,51296.00
2019-03-24T11:46:08.686Z,94048.00
2019-03-24T11:47:08.680Z,50016.00
2019-03-24T11:48:08.672Z,73536.00
2019-03-24T11:49:08.667Z,38464.00
2019-03-24T11:50:08.661Z,38976.00
2019-03-24T11:51:08.654Z,28576.00
2019-03-24T11:52:08.654Z,41824.00
2019-03-24T11:53:08.646Z,82560.00
2019-03-24T11:54:08.689Z,39008.00
2019-03-24T11:55:08.633Z,73152.00
2019-03-24T11:56:08.630Z,56992.00
2019-03-24T11:57:08.622Z,88352.00
2019-03-24T11:58:08.629Z,89696.00
2019-03-24T11:59:08.614Z,63232.00
2019-03-24T12:00:08.613Z,50272.00
2019-03-24T12:01:08.606Z,51936.00
2019-03-24T12:02:08.599Z,48800.00
2019-03-24T12:03:08.596Z,36224.00
2019-03-24T12:04:08.587Z,28544.00
2019-03-24T12:05:08.589Z,26720.00
2019-03-24T12:06:14.509Z,29472.00
2019-03-24T12:07:08.585Z,32960.00
2019-03-24T12:08:08.577Z,23808.00
2019-03-24T12:09:08.565Z,18080.00
2019-03-24T12:10:08.560Z,18208.00
2019-03-24T12:11:08.558Z,32704.00
2019-03-24T12:12:08.552Z,16544.00
2019-03-24T12:13:08.550Z,27648.00
2019-03-24T12:14:08.540Z,17376.00
2019-03-24T12:15:08.538Z,29312.00
2019-03-24T12:16:08.559Z,25408.00
2019-03-24T12:17:08.519Z,19808.00
2019-03-24T12:18:08.522Z,18560.00
2019-03-24T12:19:08.512Z,18016.00
2019-03-24T12:20:08.510Z,22528.00
2019-03-24T12:21:08.502Z,35008.00
2019-03-24T12:22:08.496Z,16032.00
2019-03-24T12:23:08.490Z,21120.00
2019-03-24T12:24:08.485Z,17216.00
2019-03-24T12:25:08.494Z,15544.00
2019-03-24T12:26:08.474Z,16224.00
2019-03-24T12:27:08.468Z,78048.00
2019-03-24T12:28:08.456Z,55776.00